RYR61LJ LEPA-LEZL
Flight info
| Callsign | RYR61LJ |
|---|---|
| Flight time | N/A |
| Altitude | 39000 |
| Route | EPAMA N733 VLC M985 MAMIS |
| Aircraft | B38M/M-SDE1FGHILORVWXY/HB1 |
Departure
| Time | 2026-05-07 12:20 |
|---|---|
| Airport | Palma de Mallorca Airport (LEPA) |
Arrival
| Time | N/A |
|---|---|
| Airport | Seville Airport (LEZL) |
| Time | Latitude | Longitude | Altitude | Speed | Heading |
|---|---|---|---|---|---|
| 2026-05-07 11:52 | 39.55022 | 2.73492 | 38 ft | 0 kts | 164° |
| 2026-05-07 12:10 | 39.55027 | 2.73490 | 37 ft | 4 kts | 166° |
| 2026-05-07 12:11 | 39.55048 | 2.73481 | 38 ft | 4 kts | 148° |
| 2026-05-07 12:11 | 39.55061 | 2.73461 | 38 ft | 4 kts | 83° |
| 2026-05-07 12:11 | 39.55050 | 2.73431 | 38 ft | 4 kts | 54° |
| 2026-05-07 12:11 | 39.55039 | 2.73411 | 38 ft | 0 kts | 57° |
| 2026-05-07 12:14 | 39.55041 | 2.73415 | 38 ft | 2 kts | 61° |
| 2026-05-07 12:15 | 39.55062 | 2.73459 | 37 ft | 10 kts | 58° |
| 2026-05-07 12:15 | 39.55117 | 2.73573 | 38 ft | 19 kts | 57° |
| 2026-05-07 12:15 | 39.55179 | 2.73703 | 38 ft | 13 kts | 74° |
| 2026-05-07 12:15 | 39.55136 | 2.73773 | 36 ft | 11 kts | 147° |
| 2026-05-07 12:16 | 39.55061 | 2.73833 | 37 ft | 14 kts | 148° |
| 2026-05-07 12:16 | 39.54971 | 2.73903 | 37 ft | 16 kts | 149° |
| 2026-05-07 12:16 | 39.54869 | 2.73981 | 38 ft | 16 kts | 151° |
| 2026-05-07 12:16 | 39.54781 | 2.73928 | 38 ft | 17 kts | 239° |
| 2026-05-07 12:17 | 39.54715 | 2.73792 | 38 ft | 19 kts | 239° |
| 2026-05-07 12:17 | 39.54649 | 2.73635 | 36 ft | 21 kts | 242° |
| 2026-05-07 12:17 | 39.54569 | 2.73469 | 38 ft | 23 kts | 238° |
| 2026-05-07 12:17 | 39.54481 | 2.73288 | 37 ft | 23 kts | 237° |
| 2026-05-07 12:18 | 39.54403 | 2.73215 | 38 ft | 11 kts | 151° |
| 2026-05-07 12:18 | 39.54347 | 2.73189 | 36 ft | 10 kts | 234° |
| 2026-05-07 12:18 | 39.54288 | 2.73139 | 38 ft | 12 kts | 165° |
| 2026-05-07 12:18 | 39.54246 | 2.73220 | 36 ft | 12 kts | 109° |
| 2026-05-07 12:19 | 39.54224 | 2.73332 | 38 ft | 14 kts | 103° |
| 2026-05-07 12:19 | 39.54249 | 2.73435 | 35 ft | 13 kts | 58° |
| 2026-05-07 12:19 | 39.54258 | 2.73454 | 37 ft | 4 kts | 58° |
| 2026-05-07 12:19 | 39.54376 | 2.73705 | 36 ft | 70 kts | 58° |
| 2026-05-07 12:20 | 39.54755 | 2.74500 | 37 ft | 135 kts | 58° |
| 2026-05-07 12:20 | 39.55321 | 2.75680 | 332 ft | 161 kts | 60° |
| 2026-05-07 12:20 | 39.55923 | 2.76913 | 1149 ft | 163 kts | 59° |
| 2026-05-07 12:20 | 39.56529 | 2.78182 | 1854 ft | 173 kts | 60° |
| 2026-05-07 12:21 | 39.57180 | 2.79588 | 2371 ft | 191 kts | 60° |
| 2026-05-07 12:21 | 39.57920 | 2.81099 | 3006 ft | 205 kts | 60° |
| 2026-05-07 12:21 | 39.58734 | 2.82688 | 3717 ft | 216 kts | 58° |
| 2026-05-07 12:21 | 39.59558 | 2.84341 | 4486 ft | 222 kts | 63° |
| 2026-05-07 12:22 | 39.60306 | 2.86143 | 5151 ft | 234 kts | 64° |
| 2026-05-07 12:22 | 39.61099 | 2.88030 | 5898 ft | 242 kts | 62° |
| 2026-05-07 12:22 | 39.61926 | 2.89905 | 6945 ft | 232 kts | 63° |
| 2026-05-07 12:22 | 39.62832 | 2.91633 | 7878 ft | 237 kts | 44° |
| 2026-05-07 12:23 | 39.64312 | 2.92532 | 8660 ft | 242 kts | 6° |
| 2026-05-07 12:23 | 39.65962 | 2.92098 | 9407 ft | 247 kts | 329° |
| 2026-05-07 12:23 | 39.67150 | 2.90515 | 10136 ft | 249 kts | 293° |
| 2026-05-07 12:23 | 39.67453 | 2.88330 | 10863 ft | 248 kts | 267° |
| 2026-05-07 12:24 | 39.67517 | 2.86078 | 11654 ft | 252 kts | 276° |
| 2026-05-07 12:24 | 39.67837 | 2.83838 | 12495 ft | 253 kts | 279° |
| 2026-05-07 12:24 | 39.68185 | 2.81595 | 13322 ft | 254 kts | 277° |
| 2026-05-07 12:24 | 39.68444 | 2.79320 | 14117 ft | 256 kts | 273° |
| 2026-05-07 12:25 | 39.68582 | 2.77015 | 14934 ft | 257 kts | 269° |
| 2026-05-07 12:25 | 39.68615 | 2.74684 | 15681 ft | 263 kts | 271° |
| 2026-05-07 12:25 | 39.69088 | 2.72304 | 16061 ft | 286 kts | 294° |
| 2026-05-07 12:25 | 39.70228 | 2.70068 | 16424 ft | 308 kts | 303° |
| 2026-05-07 12:26 | 39.71270 | 2.67577 | 16735 ft | 323 kts | 287° |
| 2026-05-07 12:26 | 39.72117 | 2.64785 | 17089 ft | 340 kts | 289° |
| 2026-05-07 12:26 | 39.73038 | 2.61936 | 17573 ft | 351 kts | 290° |
| 2026-05-07 12:26 | 39.73996 | 2.59015 | 18322 ft | 352 kts | 290° |
| 2026-05-07 12:27 | 39.74970 | 2.56070 | 18987 ft | 357 kts | 290° |
| 2026-05-07 12:27 | 39.75958 | 2.53101 | 19696 ft | 358 kts | 289° |
| 2026-05-07 12:27 | 39.76951 | 2.50117 | 20343 ft | 361 kts | 289° |
| 2026-05-07 12:27 | 39.77952 | 2.47110 | 21001 ft | 363 kts | 289° |
| 2026-05-07 12:28 | 39.78958 | 2.44085 | 21652 ft | 365 kts | 288° |
| 2026-05-07 12:28 | 39.79968 | 2.41045 | 22274 ft | 367 kts | 288° |
| 2026-05-07 12:28 | 39.80984 | 2.37985 | 22871 ft | 370 kts | 288° |
| 2026-05-07 12:28 | 39.81933 | 2.34879 | 23454 ft | 368 kts | 279° |
| 2026-05-07 12:29 | 39.82180 | 2.31629 | 24000 ft | 359 kts | 261° |
| 2026-05-07 12:29 | 39.81694 | 2.28461 | 24489 ft | 358 kts | 252° |
| 2026-05-07 12:29 | 39.81052 | 2.25316 | 24983 ft | 361 kts | 251° |
| 2026-05-07 12:29 | 39.80367 | 2.22171 | 25518 ft | 362 kts | 251° |
| 2026-05-07 12:30 | 39.79657 | 2.19023 | 26020 ft | 363 kts | 250° |
| 2026-05-07 12:30 | 39.78929 | 2.15865 | 26486 ft | 366 kts | 250° |
| 2026-05-07 12:30 | 39.78190 | 2.12696 | 26971 ft | 367 kts | 250° |
| 2026-05-07 12:30 | 39.77442 | 2.09514 | 27417 ft | 369 kts | 250° |
| 2026-05-07 12:31 | 39.76686 | 2.06309 | 27865 ft | 371 kts | 250° |
| 2026-05-07 12:31 | 39.75926 | 2.03094 | 28292 ft | 373 kts | 250° |
| 2026-05-07 12:31 | 39.75161 | 1.99864 | 28703 ft | 375 kts | 250° |
| 2026-05-07 12:31 | 39.74393 | 1.96625 | 29097 ft | 377 kts | 249° |
| 2026-05-07 12:32 | 39.73616 | 1.93354 | 29486 ft | 379 kts | 249° |
| 2026-05-07 12:32 | 39.72837 | 1.90078 | 29871 ft | 380 kts | 249° |
| 2026-05-07 12:32 | 39.72055 | 1.86794 | 30251 ft | 382 kts | 249° |
| 2026-05-07 12:32 | 39.71266 | 1.83486 | 30614 ft | 384 kts | 249° |
| 2026-05-07 12:33 | 39.69688 | 1.76880 | 31287 ft | 388 kts | 249° |
| 2026-05-07 12:33 | 39.68886 | 1.73533 | 31629 ft | 389 kts | 249° |
| 2026-05-07 12:33 | 39.68080 | 1.70172 | 31936 ft | 391 kts | 249° |
| 2026-05-07 12:34 | 39.67268 | 1.66788 | 32266 ft | 393 kts | 249° |
| 2026-05-07 12:34 | 39.66452 | 1.63400 | 32593 ft | 394 kts | 249° |
| 2026-05-07 12:34 | 39.65633 | 1.60001 | 32943 ft | 395 kts | 249° |
| 2026-05-07 12:34 | 39.64813 | 1.56601 | 33357 ft | 394 kts | 249° |
| 2026-05-07 12:35 | 39.63996 | 1.53218 | 33822 ft | 391 kts | 249° |
| 2026-05-07 12:35 | 39.63183 | 1.49856 | 34254 ft | 389 kts | 249° |
| 2026-05-07 12:35 | 39.62373 | 1.46514 | 34613 ft | 389 kts | 249° |
| 2026-05-07 12:35 | 39.61562 | 1.43167 | 34917 ft | 389 kts | 249° |
| 2026-05-07 12:36 | 39.60747 | 1.39803 | 35217 ft | 390 kts | 249° |
| 2026-05-07 12:36 | 39.60253 | 1.36327 | 35497 ft | 397 kts | 261° |
| 2026-05-07 12:36 | 39.60064 | 1.32759 | 35762 ft | 398 kts | 260° |
| 2026-05-07 12:36 | 39.59840 | 1.29168 | 35991 ft | 400 kts | 260° |
| 2026-05-07 12:37 | 39.59628 | 1.25572 | 36247 ft | 401 kts | 260° |
| 2026-05-07 12:37 | 39.59422 | 1.21970 | 36491 ft | 402 kts | 261° |
| 2026-05-07 12:37 | 39.59219 | 1.18399 | 36735 ft | 402 kts | 261° |
| 2026-05-07 12:37 | 39.59014 | 1.14800 | 37117 ft | 398 kts | 261° |
| 2026-05-07 12:38 | 39.58808 | 1.11192 | 37469 ft | 396 kts | 261° |
| 2026-05-07 12:38 | 39.58606 | 1.07682 | 37688 ft | 396 kts | 261° |
| 2026-05-07 12:38 | 39.58399 | 1.04110 | 37856 ft | 397 kts | 261° |
| 2026-05-07 12:38 | 39.58192 | 1.00532 | 38045 ft | 398 kts | 261° |
| 2026-05-07 12:39 | 39.57983 | 0.96952 | 38219 ft | 399 kts | 261° |
| 2026-05-07 12:39 | 39.57772 | 0.93362 | 38405 ft | 399 kts | 261° |
| 2026-05-07 12:39 | 39.57560 | 0.89768 | 38607 ft | 399 kts | 261° |
| 2026-05-07 12:39 | 39.57347 | 0.86173 | 38771 ft | 400 kts | 261° |
| 2026-05-07 12:40 | 39.57132 | 0.82575 | 38921 ft | 401 kts | 261° |
| 2026-05-07 12:40 | 39.56916 | 0.78963 | 38970 ft | 403 kts | 261° |
| 2026-05-07 12:40 | 39.56479 | 0.71735 | 38964 ft | 402 kts | 261° |
| 2026-05-07 12:41 | 39.56039 | 0.64512 | 38970 ft | 403 kts | 261° |
| 2026-05-07 12:41 | 39.55593 | 0.57275 | 38973 ft | 403 kts | 261° |
| 2026-05-07 12:42 | 39.55142 | 0.50031 | 38971 ft | 403 kts | 261° |
| 2026-05-07 12:42 | 39.54687 | 0.42789 | 38973 ft | 404 kts | 261° |
| 2026-05-07 12:43 | 39.54226 | 0.35528 | 38972 ft | 404 kts | 261° |
| 2026-05-07 12:43 | 39.53763 | 0.28309 | 38971 ft | 404 kts | 260° |
| 2026-05-07 12:44 | 39.53292 | 0.21043 | 38972 ft | 405 kts | 260° |
| 2026-05-07 12:44 | 39.52816 | 0.13768 | 38978 ft | 405 kts | 260° |
| 2026-05-07 12:45 | 39.52334 | 0.06485 | 38981 ft | 406 kts | 260° |
| 2026-05-07 12:45 | 39.51848 | -0.00794 | 38981 ft | 406 kts | 260° |
| 2026-05-07 12:46 | 39.51355 | -0.08120 | 38977 ft | 410 kts | 261° |
| 2026-05-07 12:46 | 39.50851 | -0.15530 | 38981 ft | 416 kts | 261° |
| 2026-05-07 12:47 | 39.50339 | -0.22985 | 38980 ft | 415 kts | 261° |
| 2026-05-07 12:47 | 39.49826 | -0.30385 | 38980 ft | 415 kts | 261° |
| 2026-05-07 12:48 | 39.49304 | -0.37847 | 38964 ft | 416 kts | 261° |
| 2026-05-07 12:48 | 39.48726 | -0.45290 | 38956 ft | 413 kts | 254° |
| 2026-05-07 12:49 | 39.47775 | -0.48737 | 38955 ft | 404 kts | 238° |
| 2026-05-07 12:49 | 39.46253 | -0.51777 | 38967 ft | 404 kts | 234° |
| 2026-05-07 12:49 | 39.42991 | -0.57715 | 38961 ft | 405 kts | 232° |
| 2026-05-07 12:50 | 39.39624 | -0.63555 | 38962 ft | 405 kts | 231° |
| 2026-05-07 12:50 | 39.36219 | -0.69366 | 38971 ft | 405 kts | 231° |
| 2026-05-07 12:51 | 39.32833 | -0.75120 | 38969 ft | 405 kts | 231° |
| 2026-05-07 12:51 | 39.29424 | -0.80903 | 38977 ft | 405 kts | 231° |
| 2026-05-07 12:52 | 39.26009 | -0.86683 | 38968 ft | 405 kts | 231° |
| 2026-05-07 12:52 | 39.22594 | -0.92454 | 38970 ft | 405 kts | 231° |
| 2026-05-07 12:53 | 39.19171 | -0.98226 | 38972 ft | 405 kts | 231° |
| 2026-05-07 12:53 | 39.15749 | -1.03989 | 38976 ft | 404 kts | 231° |
| 2026-05-07 12:54 | 39.12324 | -1.09746 | 38970 ft | 405 kts | 231° |
| 2026-05-07 12:54 | 39.08894 | -1.15498 | 38978 ft | 405 kts | 231° |
| 2026-05-07 12:55 | 39.05466 | -1.21241 | 38982 ft | 405 kts | 231° |
| 2026-05-07 12:55 | 39.02036 | -1.26974 | 38984 ft | 405 kts | 231° |
| 2026-05-07 12:56 | 38.98599 | -1.32709 | 38975 ft | 404 kts | 231° |
| 2026-05-07 12:56 | 38.95164 | -1.38430 | 38983 ft | 405 kts | 231° |
| 2026-05-07 12:57 | 38.91722 | -1.44152 | 38981 ft | 404 kts | 231° |
| 2026-05-07 12:57 | 38.88283 | -1.49861 | 38992 ft | 404 kts | 231° |
| 2026-05-07 12:58 | 38.84860 | -1.55533 | 38986 ft | 404 kts | 231° |
| 2026-05-07 12:58 | 38.81416 | -1.61231 | 38992 ft | 404 kts | 231° |
| 2026-05-07 12:59 | 38.77970 | -1.66920 | 38992 ft | 404 kts | 231° |
| 2026-05-07 12:59 | 38.74518 | -1.72609 | 38990 ft | 404 kts | 231° |
| 2026-05-07 13:00 | 38.71065 | -1.78288 | 38990 ft | 404 kts | 231° |
| 2026-05-07 13:00 | 38.68193 | -1.83002 | 38993 ft | 404 kts | 231° |
| 2026-05-07 13:01 | 38.64737 | -1.88667 | 38991 ft | 404 kts | 231° |
| 2026-05-07 13:01 | 38.61252 | -1.94371 | 38981 ft | 404 kts | 231° |
| 2026-05-07 13:02 | 38.57813 | -1.99988 | 38978 ft | 404 kts | 231° |
| 2026-05-07 13:02 | 38.54339 | -2.05652 | 38981 ft | 405 kts | 232° |
| 2026-05-07 13:03 | 38.50856 | -2.11322 | 38983 ft | 405 kts | 231° |
| 2026-05-07 13:03 | 38.47376 | -2.16980 | 38984 ft | 405 kts | 231° |
| 2026-05-07 13:04 | 38.43895 | -2.22629 | 38977 ft | 405 kts | 231° |
| 2026-05-07 13:04 | 38.40411 | -2.28272 | 38969 ft | 405 kts | 231° |
| 2026-05-07 13:05 | 38.36948 | -2.33874 | 38970 ft | 405 kts | 231° |
| 2026-05-07 13:05 | 38.33098 | -2.39104 | 38966 ft | 405 kts | 226° |
| 2026-05-07 13:06 | 38.29217 | -2.44303 | 38960 ft | 405 kts | 227° |
| 2026-05-07 13:06 | 38.25346 | -2.49516 | 38958 ft | 405 kts | 227° |
| 2026-05-07 13:07 | 38.21475 | -2.54726 | 38957 ft | 405 kts | 227° |
| 2026-05-07 13:07 | 38.17609 | -2.59919 | 38960 ft | 405 kts | 227° |
| 2026-05-07 13:08 | 38.13735 | -2.65116 | 38964 ft | 404 kts | 227° |
| 2026-05-07 13:08 | 38.09858 | -2.70309 | 38959 ft | 405 kts | 227° |
| 2026-05-07 13:09 | 38.05977 | -2.75499 | 38951 ft | 405 kts | 227° |
| 2026-05-07 13:09 | 38.02097 | -2.80677 | 38952 ft | 405 kts | 227° |
| 2026-05-07 13:10 | 37.98212 | -2.85855 | 38952 ft | 406 kts | 227° |
| 2026-05-07 13:10 | 37.94344 | -2.90987 | 38949 ft | 404 kts | 227° |
| 2026-05-07 13:11 | 37.90434 | -2.96155 | 38952 ft | 404 kts | 227° |
| 2026-05-07 13:11 | 37.86571 | -3.01255 | 38949 ft | 404 kts | 227° |
| 2026-05-07 13:12 | 37.82673 | -3.06390 | 38944 ft | 404 kts | 228° |
| 2026-05-07 13:12 | 37.78775 | -3.11518 | 38945 ft | 404 kts | 227° |
| 2026-05-07 13:13 | 37.75037 | -3.16796 | 38929 ft | 401 kts | 239° |
| 2026-05-07 13:13 | 37.73928 | -3.20001 | 38947 ft | 399 kts | 255° |
| 2026-05-07 13:13 | 37.73452 | -3.23469 | 38952 ft | 402 kts | 261° |
| 2026-05-07 13:14 | 37.72862 | -3.30502 | 38943 ft | 403 kts | 263° |
| 2026-05-07 13:14 | 37.72418 | -3.37582 | 38938 ft | 404 kts | 264° |
| 2026-05-07 13:15 | 37.72015 | -3.44664 | 38932 ft | 404 kts | 264° |
| 2026-05-07 13:15 | 37.71617 | -3.51748 | 38933 ft | 405 kts | 264° |
| 2026-05-07 13:16 | 37.71215 | -3.58836 | 38933 ft | 404 kts | 264° |
| 2026-05-07 13:16 | 37.70809 | -3.65915 | 38929 ft | 404 kts | 264° |
| 2026-05-07 13:17 | 37.70400 | -3.72988 | 38943 ft | 404 kts | 264° |
| 2026-05-07 13:17 | 37.70197 | -3.76482 | 38421 ft | 397 kts | 264° |
| 2026-05-07 13:17 | 37.69992 | -3.79984 | 37146 ft | 403 kts | 264° |
| 2026-05-07 13:18 | 37.69781 | -3.83548 | 35693 ft | 411 kts | 264° |
| 2026-05-07 13:18 | 37.69569 | -3.87128 | 34298 ft | 416 kts | 264° |
| 2026-05-07 13:18 | 37.69352 | -3.90780 | 33054 ft | 417 kts | 264° |
| 2026-05-07 13:18 | 37.69133 | -3.94429 | 31946 ft | 414 kts | 264° |
| 2026-05-07 13:19 | 37.68916 | -3.98039 | 30928 ft | 410 kts | 264° |
| 2026-05-07 13:19 | 37.68701 | -4.01603 | 29948 ft | 405 kts | 264° |
| 2026-05-07 13:19 | 37.68487 | -4.05134 | 28980 ft | 401 kts | 264° |
| 2026-05-07 13:19 | 37.68273 | -4.08630 | 28190 ft | 399 kts | 263° |
| 2026-05-07 13:20 | 37.68062 | -4.12060 | 28050 ft | 385 kts | 263° |
| 2026-05-07 13:20 | 37.67858 | -4.15373 | 27919 ft | 373 kts | 263° |
| 2026-05-07 13:20 | 37.67659 | -4.18580 | 27788 ft | 361 kts | 263° |
| 2026-05-07 13:20 | 37.67465 | -4.21689 | 27659 ft | 350 kts | 263° |
| 2026-05-07 13:21 | 37.67276 | -4.24716 | 27350 ft | 345 kts | 263° |
| 2026-05-07 13:21 | 37.67087 | -4.27725 | 26943 ft | 343 kts | 263° |
| 2026-05-07 13:21 | 37.66899 | -4.30716 | 26531 ft | 341 kts | 263° |
| 2026-05-07 13:21 | 37.66710 | -4.33693 | 26120 ft | 340 kts | 263° |
| 2026-05-07 13:22 | 37.66522 | -4.36661 | 25712 ft | 338 kts | 263° |
| 2026-05-07 13:22 | 37.66334 | -4.39609 | 25319 ft | 336 kts | 263° |
| 2026-05-07 13:22 | 37.66146 | -4.42545 | 24923 ft | 335 kts | 263° |
| 2026-05-07 13:22 | 37.65959 | -4.45462 | 24534 ft | 333 kts | 263° |
| 2026-05-07 13:23 | 37.65772 | -4.48362 | 24158 ft | 331 kts | 263° |
| 2026-05-07 13:23 | 37.65585 | -4.51250 | 23781 ft | 329 kts | 263° |
| 2026-05-07 13:23 | 37.65399 | -4.54113 | 23411 ft | 326 kts | 263° |
| 2026-05-07 13:23 | 37.65213 | -4.56956 | 23044 ft | 325 kts | 263° |
| 2026-05-07 13:24 | 37.65028 | -4.59782 | 22675 ft | 323 kts | 263° |
| 2026-05-07 13:24 | 37.64843 | -4.62598 | 22311 ft | 321 kts | 263° |
| 2026-05-07 13:24 | 37.64661 | -4.65359 | 21956 ft | 318 kts | 263° |
| 2026-05-07 13:24 | 37.64478 | -4.68132 | 21606 ft | 316 kts | 263° |
| 2026-05-07 13:25 | 37.64295 | -4.70881 | 21255 ft | 313 kts | 263° |
| 2026-05-07 13:25 | 37.64113 | -4.73606 | 20913 ft | 311 kts | 263° |
| 2026-05-07 13:25 | 37.63932 | -4.76317 | 20571 ft | 309 kts | 263° |
| 2026-05-07 13:25 | 37.63751 | -4.79010 | 20236 ft | 307 kts | 263° |
| 2026-05-07 13:26 | 37.63571 | -4.81686 | 19895 ft | 304 kts | 263° |
| 2026-05-07 13:26 | 37.63392 | -4.84330 | 19568 ft | 302 kts | 264° |
| 2026-05-07 13:26 | 37.63214 | -4.86962 | 19241 ft | 299 kts | 263° |
| 2026-05-07 13:26 | 37.63036 | -4.89566 | 18916 ft | 297 kts | 263° |
| 2026-05-07 13:27 | 37.62860 | -4.92153 | 18594 ft | 295 kts | 263° |
| 2026-05-07 13:27 | 37.62683 | -4.94726 | 18277 ft | 293 kts | 263° |
| 2026-05-07 13:27 | 37.62508 | -4.97279 | 17958 ft | 291 kts | 263° |
| 2026-05-07 13:27 | 37.62334 | -4.99808 | 17644 ft | 289 kts | 263° |
| 2026-05-07 13:28 | 37.62160 | -5.02320 | 17333 ft | 286 kts | 263° |
| 2026-05-07 13:28 | 37.61987 | -5.04815 | 17026 ft | 284 kts | 263° |
| 2026-05-07 13:28 | 37.61816 | -5.07284 | 16718 ft | 282 kts | 263° |
| 2026-05-07 13:28 | 37.61644 | -5.09740 | 16409 ft | 280 kts | 263° |
| 2026-05-07 13:29 | 37.61474 | -5.12175 | 16106 ft | 278 kts | 263° |
| 2026-05-07 13:29 | 37.61305 | -5.14599 | 15814 ft | 278 kts | 263° |
| 2026-05-07 13:29 | 37.61132 | -5.17050 | 15495 ft | 283 kts | 263° |
| 2026-05-07 13:29 | 37.60958 | -5.19535 | 15186 ft | 286 kts | 263° |
| 2026-05-07 13:30 | 37.60781 | -5.22040 | 14874 ft | 288 kts | 263° |
| 2026-05-07 13:30 | 37.60537 | -5.24544 | 14542 ft | 287 kts | 253° |
| 2026-05-07 13:30 | 37.59650 | -5.26766 | 14210 ft | 284 kts | 236° |
| 2026-05-07 13:30 | 37.58570 | -5.28837 | 13925 ft | 281 kts | 236° |
| 2026-05-07 13:31 | 37.57503 | -5.30879 | 13632 ft | 278 kts | 236° |
| 2026-05-07 13:31 | 37.56435 | -5.32904 | 13336 ft | 276 kts | 236° |